sensor_id;sensor_type;location;lat;lon;timestamp;temperature;humidity
16767;DHT22;8501;49.926;8.404;2022-11-15T00:00:20;9.00;99.90
16767;DHT22;8501;49.926;8.404;2022-11-15T00:02:46;9.00;99.90
16767;DHT22;8501;49.926;8.404;2022-11-15T00:05:11;8.90;99.90
16767;DHT22;8501;49.926;8.404;2022-11-15T00:07:37;8.90;99.90
16767;DHT22;8501;49.926;8.404;2022-11-15T00:10:03;8.90;99.90
16767;DHT22;8501;49.926;8.404;2022-11-15T00:12:29;8.90;99.90
16767;DHT22;8501;49.926;8.404;2022-11-15T00:14:54;8.90;99.90
16767;DHT22;8501;49.926;8.404;2022-11-15T00:17:20;8.90;99.90
16767;DHT22;8501;49.926;8.404;2022-11-15T00:19:45;8.90;99.90
16767;DHT22;8501;49.926;8.404;2022-11-15T00:22:11;9.00;99.90
16767;DHT22;8501;49.926;8.404;2022-11-15T00:24:36;9.00;99.90
16767;DHT22;8501;49.926;8.404;2022-11-15T00:27:02;9.00;99.90
16767;DHT22;8501;49.926;8.404;2022-11-15T00:29:28;9.00;99.90
16767;DHT22;8501;49.926;8.404;2022-11-15T00:31:53;9.10;99.90
16767;DHT22;8501;49.926;8.404;2022-11-15T00:34:19;9.10;99.90
16767;DHT22;8501;49.926;8.404;2022-11-15T00:36:44;9.10;99.90
16767;DHT22;8501;49.926;8.404;2022-11-15T00:39:10;9.10;99.90
16767;DHT22;8501;49.926;8.404;2022-11-15T00:41:35;9.10;99.90
16767;DHT22;8501;49.926;8.404;2022-11-15T00:44:01;9.20;99.90
16767;DHT22;8501;49.926;8.404;2022-11-15T00:46:26;9.20;99.90
16767;DHT22;8501;49.926;8.404;2022-11-15T00:48:52;9.20;99.90
16767;DHT22;8501;49.926;8.404;2022-11-15T00:51:17;9.20;99.90
16767;DHT22;8501;49.926;8.404;2022-11-15T00:53:43;9.20;99.90
16767;DHT22;8501;49.926;8.404;2022-11-15T00:56:08;9.20;99.90
16767;DHT22;8501;49.926;8.404;2022-11-15T00:58:34;9.30;99.90
16767;DHT22;8501;49.926;8.404;2022-11-15T01:01:10;9.30;99.90
16767;DHT22;8501;49.926;8.404;2022-11-15T01:03:37;9.30;99.90
16767;DHT22;8501;49.926;8.404;2022-11-15T01:06:03;9.30;99.90
16767;DHT22;8501;49.926;8.404;2022-11-15T01:08:29;9.30;99.90
16767;DHT22;8501;49.926;8.404;2022-11-15T01:10:54;9.40;99.90
16767;DHT22;8501;49.926;8.404;2022-11-15T01:13:20;9.30;99.90
16767;DHT22;8501;49.926;8.404;2022-11-15T01:15:45;9.30;99.90
16767;DHT22;8501;49.926;8.404;2022-11-15T01:18:11;9.40;99.90
16767;DHT22;8501;49.926;8.404;2022-11-15T01:20:42;9.40;99.90
16767;DHT22;8501;49.926;8.404;2022-11-15T01:23:08;9.40;99.90
16767;DHT22;8501;49.926;8.404;2022-11-15T01:25:34;9.40;99.90
16767;DHT22;8501;49.926;8.404;2022-11-15T01:27:59;9.40;99.90
16767;DHT22;8501;49.926;8.404;2022-11-15T01:30:25;9.40;99.90
16767;DHT22;8501;49.926;8.404;2022-11-15T01:32:51;9.40;99.90
16767;DHT22;8501;49.926;8.404;2022-11-15T01:35:16;9.50;99.90
16767;DHT22;8501;49.926;8.404;2022-11-15T01:37:42;9.40;99.90
16767;DHT22;8501;49.926;8.404;2022-11-15T01:40:08;9.40;99.90
16767;DHT22;8501;49.926;8.404;2022-11-15T01:42:33;9.40;99.90
16767;DHT22;8501;49.926;8.404;2022-11-15T01:44:59;9.40;99.90
16767;DHT22;8501;49.926;8.404;2022-11-15T01:47:28;9.40;99.90
16767;DHT22;8501;49.926;8.404;2022-11-15T01:50:01;9.40;99.90
16767;DHT22;8501;49.926;8.404;2022-11-15T01:52:30;9.40;99.90
16767;DHT22;8501;49.926;8.404;2022-11-15T01:55:20;9.30;99.90
16767;DHT22;8501;49.926;8.404;2022-11-15T01:57:50;9.40;99.90
16767;DHT22;8501;49.926;8.404;2022-11-15T02:00:16;9.40;99.90
16767;DHT22;8501;49.926;8.404;2022-11-15T02:02:42;9.40;99.90
16767;DHT22;8501;49.926;8.404;2022-11-15T02:05:09;9.40;99.90
16767;DHT22;8501;49.926;8.404;2022-11-15T02:07:35;9.40;99.90
16767;DHT22;8501;49.926;8.404;2022-11-15T02:10:12;9.30;99.90
16767;DHT22;8501;49.926;8.404;2022-11-15T02:12:39;9.30;99.90
16767;DHT22;8501;49.926;8.404;2022-11-15T02:15:06;9.30;99.90
16767;DHT22;8501;49.926;8.404;2022-11-15T02:17:53;9.30;99.90
16767;DHT22;8501;49.926;8.404;2022-11-15T02:20:34;9.30;99.90
16767;DHT22;8501;49.926;8.404;2022-11-15T02:34:29;9.30;99.90
16767;DHT22;8501;49.926;8.404;2022-11-15T02:37:34;9.30;99.90
16767;DHT22;8501;49.926;8.404;2022-11-15T02:42:45;9.40;99.90
16767;DHT22;8501;49.926;8.404;2022-11-15T02:45:37;9.40;99.90
16767;DHT22;8501;49.926;8.404;2022-11-15T02:48:05;9.40;99.90
16767;DHT22;8501;49.926;8.404;2022-11-15T02:50:33;9.50;99.90
16767;DHT22;8501;49.926;8.404;2022-11-15T02:52:59;9.50;99.90
16767;DHT22;8501;49.926;8.404;2022-11-15T02:55:27;9.40;99.90
16767;DHT22;8501;49.926;8.404;2022-11-15T02:58:26;9.50;99.90
16767;DHT22;8501;49.926;8.404;2022-11-15T03:09:04;9.50;99.90
16767;DHT22;8501;49.926;8.404;2022-11-15T03:11:37;9.50;99.90
16767;DHT22;8501;49.926;8.404;2022-11-15T03:14:19;9.50;99.90
16767;DHT22;8501;49.926;8.404;2022-11-15T03:19:44;9.50;99.90
16767;DHT22;8501;49.926;8.404;2022-11-15T03:22:13;9.50;99.90
16767;DHT22;8501;49.926;8.404;2022-11-15T03:24:41;9.50;99.90
16767;DHT22;8501;49.926;8.404;2022-11-15T03:27:08;9.50;99.90
16767;DHT22;8501;49.926;8.404;2022-11-15T03:29:39;9.50;99.90
16767;DHT22;8501;49.926;8.404;2022-11-15T03:32:11;9.50;99.90
16767;DHT22;8501;49.926;8.404;2022-11-15T03:34:46;9.50;99.90
16767;DHT22;8501;49.926;8.404;2022-11-15T03:37:14;9.60;99.90
16767;DHT22;8501;49.926;8.404;2022-11-15T03:39:40;9.60;99.90
16767;DHT22;8501;49.926;8.404;2022-11-15T03:42:22;9.50;99.90
16767;DHT22;8501;49.926;8.404;2022-11-15T03:47:48;9.50;99.90
16767;DHT22;8501;49.926;8.404;2022-11-15T03:50:18;9.50;99.90
16767;DHT22;8501;49.926;8.404;2022-11-15T03:52:46;9.50;99.90
16767;DHT22;8501;49.926;8.404;2022-11-15T03:55:15;9.50;99.90
16767;DHT22;8501;49.926;8.404;2022-11-15T03:57:42;9.50;99.90
16767;DHT22;8501;49.926;8.404;2022-11-15T04:00:08;9.50;99.90
16767;DHT22;8501;49.926;8.404;2022-11-15T04:02:33;9.50;99.90
16767;DHT22;8501;49.926;8.404;2022-11-15T04:04:59;9.50;99.90
16767;DHT22;8501;49.926;8.404;2022-11-15T04:07:25;9.50;99.90
16767;DHT22;8501;49.926;8.404;2022-11-15T04:09:50;9.50;99.90
16767;DHT22;8501;49.926;8.404;2022-11-15T04:12:39;9.50;99.90
16767;DHT22;8501;49.926;8.404;2022-11-15T04:15:08;9.50;99.90
16767;DHT22;8501;49.926;8.404;2022-11-15T04:17:43;9.50;99.90
16767;DHT22;8501;49.926;8.404;2022-11-15T04:20:12;9.50;99.90
16767;DHT22;8501;49.926;8.404;2022-11-15T04:22:57;9.60;99.90
16767;DHT22;8501;49.926;8.404;2022-11-15T04:25:42;9.60;99.90
16767;DHT22;8501;49.926;8.404;2022-11-15T04:28:08;9.60;99.90
16767;DHT22;8501;49.926;8.404;2022-11-15T04:30:34;9.60;99.90
16767;DHT22;8501;49.926;8.404;2022-11-15T04:32:59;9.60;99.90
16767;DHT22;8501;49.926;8.404;2022-11-15T04:35:25;9.60;99.90
16767;DHT22;8501;49.926;8.404;2022-11-15T04:37:51;9.60;99.90
16767;DHT22;8501;49.926;8.404;2022-11-15T04:40:16;9.60;99.90
16767;DHT22;8501;49.926;8.404;2022-11-15T04:42:42;9.60;99.90
16767;DHT22;8501;49.926;8.404;2022-11-15T04:45:08;9.70;99.90
16767;DHT22;8501;49.926;8.404;2022-11-15T04:47:34;9.70;99.90
16767;DHT22;8501;49.926;8.404;2022-11-15T04:49:59;9.70;99.90
16767;DHT22;8501;49.926;8.404;2022-11-15T04:52:25;9.70;99.90
16767;DHT22;8501;49.926;8.404;2022-11-15T04:54:51;9.70;99.90
16767;DHT22;8501;49.926;8.404;2022-11-15T04:57:16;9.70;99.90
16767;DHT22;8501;49.926;8.404;2022-11-15T04:59:42;9.70;99.90
16767;DHT22;8501;49.926;8.404;2022-11-15T05:02:07;9.70;99.90
16767;DHT22;8501;49.926;8.404;2022-11-15T05:04:33;9.80;99.90
16767;DHT22;8501;49.926;8.404;2022-11-15T05:06:58;9.80;99.90
16767;DHT22;8501;49.926;8.404;2022-11-15T05:09:24;9.80;99.90
16767;DHT22;8501;49.926;8.404;2022-11-15T05:11:50;9.80;99.90
16767;DHT22;8501;49.926;8.404;2022-11-15T05:14:15;9.80;99.90
16767;DHT22;8501;49.926;8.404;2022-11-15T05:16:41;9.80;99.90
16767;DHT22;8501;49.926;8.404;2022-11-15T05:19:07;9.90;99.90
16767;DHT22;8501;49.926;8.404;2022-11-15T05:21:33;9.90;99.90
16767;DHT22;8501;49.926;8.404;2022-11-15T05:23:59;9.90;99.90
16767;DHT22;8501;49.926;8.404;2022-11-15T05:26:25;9.90;99.90
16767;DHT22;8501;49.926;8.404;2022-11-15T05:28:55;9.90;99.90
16767;DHT22;8501;49.926;8.404;2022-11-15T05:31:22;9.90;99.90
16767;DHT22;8501;49.926;8.404;2022-11-15T05:33:49;9.90;99.90
16767;DHT22;8501;49.926;8.404;2022-11-15T05:36:38;9.90;99.90
16767;DHT22;8501;49.926;8.404;2022-11-15T05:39:06;9.90;99.90
16767;DHT22;8501;49.926;8.404;2022-11-15T05:41:53;9.90;99.90
16767;DHT22;8501;49.926;8.404;2022-11-15T05:44:21;9.90;99.90
16767;DHT22;8501;49.926;8.404;2022-11-15T05:46:49;9.90;99.90
16767;DHT22;8501;49.926;8.404;2022-11-15T05:49:18;9.90;99.90
16767;DHT22;8501;49.926;8.404;2022-11-15T05:51:47;9.90;99.90
16767;DHT22;8501;49.926;8.404;2022-11-15T05:54:14;9.90;99.90
16767;DHT22;8501;49.926;8.404;2022-11-15T05:56:40;9.90;99.90
16767;DHT22;8501;49.926;8.404;2022-11-15T05:59:07;9.90;99.90
16767;DHT22;8501;49.926;8.404;2022-11-15T06:01:33;9.90;99.90
16767;DHT22;8501;49.926;8.404;2022-11-15T06:03:59;9.90;99.90
16767;DHT22;8501;49.926;8.404;2022-11-15T06:06:24;9.90;99.90
16767;DHT22;8501;49.926;8.404;2022-11-15T06:08:50;9.90;99.90
16767;DHT22;8501;49.926;8.404;2022-11-15T06:11:15;9.90;99.90
16767;DHT22;8501;49.926;8.404;2022-11-15T06:13:41;9.90;99.90
16767;DHT22;8501;49.926;8.404;2022-11-15T06:16:07;9.90;99.90
16767;DHT22;8501;49.926;8.404;2022-11-15T06:18:36;9.80;99.90
16767;DHT22;8501;49.926;8.404;2022-11-15T06:21:01;9.90;99.90
16767;DHT22;8501;49.926;8.404;2022-11-15T06:23:32;9.90;99.90
16767;DHT22;8501;49.926;8.404;2022-11-15T06:25:59;9.90;99.90
16767;DHT22;8501;49.926;8.404;2022-11-15T06:28:27;9.90;99.90
16767;DHT22;8501;49.926;8.404;2022-11-15T06:30:53;9.90;99.90
16767;DHT22;8501;49.926;8.404;2022-11-15T06:33:19;9.90;99.90
16767;DHT22;8501;49.926;8.404;2022-11-15T06:35:44;9.90;99.90
16767;DHT22;8501;49.926;8.404;2022-11-15T06:38:11;9.80;99.90
16767;DHT22;8501;49.926;8.404;2022-11-15T06:40:38;9.80;99.90
16767;DHT22;8501;49.926;8.404;2022-11-15T06:43:04;9.80;99.90
16767;DHT22;8501;49.926;8.404;2022-11-15T06:45:31;9.80;99.90
16767;DHT22;8501;49.926;8.404;2022-11-15T06:47:56;9.90;99.90
16767;DHT22;8501;49.926;8.404;2022-11-15T06:50:22;9.90;99.90
16767;DHT22;8501;49.926;8.404;2022-11-15T06:52:48;9.90;99.90
16767;DHT22;8501;49.926;8.404;2022-11-15T06:55:14;9.90;99.90
16767;DHT22;8501;49.926;8.404;2022-11-15T06:57:48;9.90;99.90
16767;DHT22;8501;49.926;8.404;2022-11-15T07:00:15;9.90;99.90
16767;DHT22;8501;49.926;8.404;2022-11-15T07:02:41;9.90;99.90
16767;DHT22;8501;49.926;8.404;2022-11-15T07:05:06;9.90;99.90
16767;DHT22;8501;49.926;8.404;2022-11-15T07:07:32;9.90;99.90
16767;DHT22;8501;49.926;8.404;2022-11-15T07:09:57;9.80;99.90
16767;DHT22;8501;49.926;8.404;2022-11-15T07:12:23;9.90;99.90
16767;DHT22;8501;49.926;8.404;2022-11-15T07:14:48;9.90;99.90
16767;DHT22;8501;49.926;8.404;2022-11-15T07:17:14;9.90;99.90
16767;DHT22;8501;49.926;8.404;2022-11-15T07:19:40;9.90;99.90
16767;DHT22;8501;49.926;8.404;2022-11-15T07:22:05;9.90;99.90
16767;DHT22;8501;49.926;8.404;2022-11-15T07:24:31;9.90;99.90
16767;DHT22;8501;49.926;8.404;2022-11-15T07:26:56;9.90;99.90
16767;DHT22;8501;49.926;8.404;2022-11-15T07:29:22;9.90;99.90
16767;DHT22;8501;49.926;8.404;2022-11-15T07:31:47;9.90;99.90
16767;DHT22;8501;49.926;8.404;2022-11-15T07:34:14;10.00;99.90
16767;DHT22;8501;49.926;8.404;2022-11-15T07:36:39;10.00;99.90
16767;DHT22;8501;49.926;8.404;2022-11-15T07:39:05;10.00;99.90
16767;DHT22;8501;49.926;8.404;2022-11-15T07:41:30;10.00;99.90
16767;DHT22;8501;49.926;8.404;2022-11-15T07:43:56;10.00;99.90
16767;DHT22;8501;49.926;8.404;2022-11-15T07:46:22;10.00;99.90
16767;DHT22;8501;49.926;8.404;2022-11-15T07:48:48;10.00;99.90
16767;DHT22;8501;49.926;8.404;2022-11-15T07:51:15;10.00;99.90
16767;DHT22;8501;49.926;8.404;2022-11-15T07:53:44;10.00;99.90
16767;DHT22;8501;49.926;8.404;2022-11-15T07:56:10;10.00;99.90
16767;DHT22;8501;49.926;8.404;2022-11-15T07:58:36;10.00;99.90
16767;DHT22;8501;49.926;8.404;2022-11-15T08:01:06;10.10;99.90
16767;DHT22;8501;49.926;8.404;2022-11-15T08:03:32;10.10;99.90
16767;DHT22;8501;49.926;8.404;2022-11-15T08:05:57;10.10;99.90
16767;DHT22;8501;49.926;8.404;2022-11-15T08:08:23;10.10;99.90
16767;DHT22;8501;49.926;8.404;2022-11-15T08:10:48;10.20;99.90
16767;DHT22;8501;49.926;8.404;2022-11-15T08:13:14;10.20;99.90
16767;DHT22;8501;49.926;8.404;2022-11-15T08:15:39;10.20;99.90
16767;DHT22;8501;49.926;8.404;2022-11-15T08:18:13;10.20;99.90
16767;DHT22;8501;49.926;8.404;2022-11-15T08:20:40;10.20;99.90
16767;DHT22;8501;49.926;8.404;2022-11-15T08:23:06;10.20;99.90
16767;DHT22;8501;49.926;8.404;2022-11-15T08:25:34;10.20;99.90
16767;DHT22;8501;49.926;8.404;2022-11-15T08:28:02;10.30;99.90
16767;DHT22;8501;49.926;8.404;2022-11-15T08:30:28;10.30;99.90
16767;DHT22;8501;49.926;8.404;2022-11-15T08:32:56;10.30;99.90
16767;DHT22;8501;49.926;8.404;2022-11-15T08:35:22;10.30;99.90
16767;DHT22;8501;49.926;8.404;2022-11-15T08:37:48;10.30;99.90
16767;DHT22;8501;49.926;8.404;2022-11-15T08:40:14;10.20;99.90
16767;DHT22;8501;49.926;8.404;2022-11-15T08:42:40;10.30;99.90
16767;DHT22;8501;49.926;8.404;2022-11-15T08:45:07;10.30;99.90
16767;DHT22;8501;49.926;8.404;2022-11-15T08:47:33;10.30;99.90
16767;DHT22;8501;49.926;8.404;2022-11-15T08:49:59;10.30;99.90
16767;DHT22;8501;49.926;8.404;2022-11-15T08:52:25;10.30;99.90
16767;DHT22;8501;49.926;8.404;2022-11-15T08:54:51;10.40;99.90
16767;DHT22;8501;49.926;8.404;2022-11-15T08:57:16;10.40;99.90
16767;DHT22;8501;49.926;8.404;2022-11-15T08:59:42;10.40;99.90
16767;DHT22;8501;49.926;8.404;2022-11-15T09:02:12;10.50;99.90
16767;DHT22;8501;49.926;8.404;2022-11-15T09:04:40;10.50;99.90
16767;DHT22;8501;49.926;8.404;2022-11-15T09:07:07;10.50;99.90
16767;DHT22;8501;49.926;8.404;2022-11-15T09:09:33;10.50;99.90
16767;DHT22;8501;49.926;8.404;2022-11-15T09:11:58;10.50;99.90
16767;DHT22;8501;49.926;8.404;2022-11-15T09:14:24;10.50;99.90
16767;DHT22;8501;49.926;8.404;2022-11-15T09:16:49;10.50;99.90
16767;DHT22;8501;49.926;8.404;2022-11-15T09:19:15;10.50;99.90
16767;DHT22;8501;49.926;8.404;2022-11-15T09:21:40;10.60;99.90
16767;DHT22;8501;49.926;8.404;2022-11-15T09:24:06;10.50;99.90
16767;DHT22;8501;49.926;8.404;2022-11-15T09:26:32;10.60;99.90
16767;DHT22;8501;49.926;8.404;2022-11-15T09:28:57;10.60;99.90
16767;DHT22;8501;49.926;8.404;2022-11-15T09:31:23;10.60;99.90
16767;DHT22;8501;49.926;8.404;2022-11-15T09:33:48;10.60;99.90
16767;DHT22;8501;49.926;8.404;2022-11-15T09:36:14;10.60;99.90
16767;DHT22;8501;49.926;8.404;2022-11-15T09:38:39;10.60;99.90
16767;DHT22;8501;49.926;8.404;2022-11-15T09:49:30;10.70;99.90
16767;DHT22;8501;49.926;8.404;2022-11-15T09:51:57;10.80;99.90
16767;DHT22;8501;49.926;8.404;2022-11-15T09:54:37;10.80;99.90
16767;DHT22;8501;49.926;8.404;2022-11-15T09:57:12;10.80;99.90
16767;DHT22;8501;49.926;8.404;2022-11-15T10:04:50;10.80;99.90
16767;DHT22;8501;49.926;8.404;2022-11-15T10:07:27;10.90;99.90
16767;DHT22;8501;49.926;8.404;2022-11-15T10:10:02;10.80;99.90
16767;DHT22;8501;49.926;8.404;2022-11-15T10:12:30;10.90;99.90
16767;DHT22;8501;49.926;8.404;2022-11-15T10:15:11;10.90;99.90
16767;DHT22;8501;49.926;8.404;2022-11-15T10:17:59;10.90;99.90
16767;DHT22;8501;49.926;8.404;2022-11-15T10:20:29;11.00;99.90
16767;DHT22;8501;49.926;8.404;2022-11-15T10:23:00;11.00;99.90
16767;DHT22;8501;49.926;8.404;2022-11-15T10:25:30;10.90;99.90
16767;DHT22;8501;49.926;8.404;2022-11-15T10:28:05;11.00;99.90
16767;DHT22;8501;49.926;8.404;2022-11-15T10:30:39;11.00;99.90
16767;DHT22;8501;49.926;8.404;2022-11-15T10:33:52;11.00;99.90
16767;DHT22;8501;49.926;8.404;2022-11-15T10:41:15;11.00;99.90
16767;DHT22;8501;49.926;8.404;2022-11-15T10:43:40;11.00;99.90
16767;DHT22;8501;49.926;8.404;2022-11-15T10:46:21;11.00;99.90
16767;DHT22;8501;49.926;8.404;2022-11-15T10:48:47;11.00;99.90
16767;DHT22;8501;49.926;8.404;2022-11-15T10:51:27;11.00;99.90
16767;DHT22;8501;49.926;8.404;2022-11-15T10:53:59;11.00;99.90
16767;DHT22;8501;49.926;8.404;2022-11-15T10:56:26;11.00;99.90
16767;DHT22;8501;49.926;8.404;2022-11-15T10:58:58;11.00;99.90
16767;DHT22;8501;49.926;8.404;2022-11-15T11:01:25;11.00;99.90
16767;DHT22;8501;49.926;8.404;2022-11-15T11:06:25;11.10;99.90
16767;DHT22;8501;49.926;8.404;2022-11-15T11:11:20;11.10;99.90
16767;DHT22;8501;49.926;8.404;2022-11-15T11:13:46;11.10;99.90
16767;DHT22;8501;49.926;8.404;2022-11-15T11:21:15;11.20;99.90
16767;DHT22;8501;49.926;8.404;2022-11-15T11:36:56;11.40;99.90
16767;DHT22;8501;49.926;8.404;2022-11-15T11:42:14;11.40;99.90
16767;DHT22;8501;49.926;8.404;2022-11-15T11:44:57;11.40;99.90
16767;DHT22;8501;49.926;8.404;2022-11-15T11:47:32;11.40;99.90
16767;DHT22;8501;49.926;8.404;2022-11-15T11:52:43;11.50;99.90
16767;DHT22;8501;49.926;8.404;2022-11-15T11:55:37;11.50;99.90
16767;DHT22;8501;49.926;8.404;2022-11-15T11:58:29;11.50;99.90
16767;DHT22;8501;49.926;8.404;2022-11-15T12:03:47;11.60;99.90
16767;DHT22;8501;49.926;8.404;2022-11-15T12:08:50;11.60;99.90
16767;DHT22;8501;49.926;8.404;2022-11-15T12:11:28;11.70;99.90
16767;DHT22;8501;49.926;8.404;2022-11-15T12:14:08;11.70;99.90
16767;DHT22;8501;49.926;8.404;2022-11-15T12:16:37;11.70;99.90
16767;DHT22;8501;49.926;8.404;2022-11-15T12:19:04;11.80;99.90
16767;DHT22;8501;49.926;8.404;2022-11-15T12:21:44;11.80;99.90
16767;DHT22;8501;49.926;8.404;2022-11-15T12:26:59;11.80;99.90
16767;DHT22;8501;49.926;8.404;2022-11-15T12:29:41;11.80;99.90
16767;DHT22;8501;49.926;8.404;2022-11-15T12:32:32;11.90;99.90
16767;DHT22;8501;49.926;8.404;2022-11-15T12:35:00;11.90;99.90
16767;DHT22;8501;49.926;8.404;2022-11-15T12:47:25;11.90;99.90
16767;DHT22;8501;49.926;8.404;2022-11-15T12:49:52;12.00;99.90
16767;DHT22;8501;49.926;8.404;2022-11-15T12:52:19;12.00;99.90
16767;DHT22;8501;49.926;8.404;2022-11-15T12:54:58;12.00;99.90
16767;DHT22;8501;49.926;8.404;2022-11-15T12:57:36;12.00;99.90
16767;DHT22;8501;49.926;8.404;2022-11-15T13:02:47;12.10;99.90
16767;DHT22;8501;49.926;8.404;2022-11-15T13:17:51;12.20;99.90
16767;DHT22;8501;49.926;8.404;2022-11-15T13:20:32;12.20;99.90
16767;DHT22;8501;49.926;8.404;2022-11-15T13:23:02;12.20;99.90
16767;DHT22;8501;49.926;8.404;2022-11-15T13:28:39;12.20;99.90
16767;DHT22;8501;49.926;8.404;2022-11-15T13:31:26;12.30;99.90
16767;DHT22;8501;49.926;8.404;2022-11-15T13:33:56;12.30;99.90
16767;DHT22;8501;49.926;8.404;2022-11-15T13:36:24;12.30;99.90
16767;DHT22;8501;49.926;8.404;2022-11-15T13:41:23;12.30;99.90
16767;DHT22;8501;49.926;8.404;2022-11-15T13:43:50;12.30;99.90
16767;DHT22;8501;49.926;8.404;2022-11-15T13:46:32;12.30;99.90
16767;DHT22;8501;49.926;8.404;2022-11-15T13:49:00;12.30;99.90
16767;DHT22;8501;49.926;8.404;2022-11-15T13:51:32;12.30;99.90
16767;DHT22;8501;49.926;8.404;2022-11-15T13:54:22;12.30;99.90
16767;DHT22;8501;49.926;8.404;2022-11-15T13:56:57;12.30;99.90
16767;DHT22;8501;49.926;8.404;2022-11-15T13:59:28;12.30;99.90
16767;DHT22;8501;49.926;8.404;2022-11-15T14:01:55;12.40;99.90
16767;DHT22;8501;49.926;8.404;2022-11-15T14:04:23;12.40;99.90
16767;DHT22;8501;49.926;8.404;2022-11-15T14:06:53;12.40;99.90
16767;DHT22;8501;49.926;8.404;2022-11-15T14:09:39;12.40;99.90
16767;DHT22;8501;49.926;8.404;2022-11-15T14:12:49;12.40;99.90
16767;DHT22;8501;49.926;8.404;2022-11-15T14:15:33;12.40;99.90
16767;DHT22;8501;49.926;8.404;2022-11-15T14:17:59;12.50;99.90
16767;DHT22;8501;49.926;8.404;2022-11-15T14:22:52;12.50;99.90
16767;DHT22;8501;49.926;8.404;2022-11-15T14:25:29;12.40;99.90
16767;DHT22;8501;49.926;8.404;2022-11-15T14:28:28;12.40;99.90
16767;DHT22;8501;49.926;8.404;2022-11-15T14:30:57;12.40;99.90
16767;DHT22;8501;49.926;8.404;2022-11-15T14:33:32;12.40;99.90
16767;DHT22;8501;49.926;8.404;2022-11-15T14:36:06;12.40;99.90
16767;DHT22;8501;49.926;8.404;2022-11-15T14:38:32;12.40;99.90
16767;DHT22;8501;49.926;8.404;2022-11-15T14:40:58;12.50;99.90
16767;DHT22;8501;49.926;8.404;2022-11-15T14:43:23;12.40;99.90
16767;DHT22;8501;49.926;8.404;2022-11-15T14:45:49;12.40;99.90
16767;DHT22;8501;49.926;8.404;2022-11-15T14:48:15;12.40;99.90
16767;DHT22;8501;49.926;8.404;2022-11-15T14:50:40;12.50;99.90
16767;DHT22;8501;49.926;8.404;2022-11-15T14:53:06;12.40;99.90
16767;DHT22;8501;49.926;8.404;2022-11-15T14:55:36;12.40;99.90
16767;DHT22;8501;49.926;8.404;2022-11-15T14:58:03;12.40;99.90
16767;DHT22;8501;49.926;8.404;2022-11-15T15:00:32;12.40;99.90
16767;DHT22;8501;49.926;8.404;2022-11-15T15:02:59;12.40;99.90
16767;DHT22;8501;49.926;8.404;2022-11-15T15:05:40;12.50;99.90
16767;DHT22;8501;49.926;8.404;2022-11-15T15:08:06;12.40;99.90
16767;DHT22;8501;49.926;8.404;2022-11-15T15:10:40;12.40;99.90
16767;DHT22;8501;49.926;8.404;2022-11-15T15:15:42;12.40;99.90
16767;DHT22;8501;49.926;8.404;2022-11-15T15:18:07;12.40;99.90
16767;DHT22;8501;49.926;8.404;2022-11-15T15:20:34;12.40;99.90
16767;DHT22;8501;49.926;8.404;2022-11-15T15:23:00;12.30;99.90
16767;DHT22;8501;49.926;8.404;2022-11-15T15:25:29;12.30;99.90
16767;DHT22;8501;49.926;8.404;2022-11-15T15:27:55;12.30;99.90
16767;DHT22;8501;49.926;8.404;2022-11-15T15:30:25;12.30;99.90
16767;DHT22;8501;49.926;8.404;2022-11-15T15:32:51;12.30;99.90
16767;DHT22;8501;49.926;8.404;2022-11-15T15:35:18;12.30;99.90
16767;DHT22;8501;49.926;8.404;2022-11-15T15:37:44;12.30;99.90
16767;DHT22;8501;49.926;8.404;2022-11-15T15:40:15;12.30;99.90
16767;DHT22;8501;49.926;8.404;2022-11-15T15:42:41;12.30;99.90
16767;DHT22;8501;49.926;8.404;2022-11-15T15:45:08;12.30;99.90
16767;DHT22;8501;49.926;8.404;2022-11-15T15:47:33;12.30;99.90
16767;DHT22;8501;49.926;8.404;2022-11-15T15:49:59;12.30;99.90
16767;DHT22;8501;49.926;8.404;2022-11-15T15:52:24;12.30;99.90
16767;DHT22;8501;49.926;8.404;2022-11-15T15:54:50;12.30;99.90
16767;DHT22;8501;49.926;8.404;2022-11-15T15:57:16;12.30;99.90
16767;DHT22;8501;49.926;8.404;2022-11-15T15:59:42;12.30;99.90
16767;DHT22;8501;49.926;8.404;2022-11-15T16:02:14;12.20;99.90
16767;DHT22;8501;49.926;8.404;2022-11-15T16:04:39;12.20;99.90
16767;DHT22;8501;49.926;8.404;2022-11-15T16:07:05;12.20;99.90
16767;DHT22;8501;49.926;8.404;2022-11-15T16:09:31;12.20;99.90
16767;DHT22;8501;49.926;8.404;2022-11-15T16:12:16;12.20;99.90
16767;DHT22;8501;49.926;8.404;2022-11-15T16:14:42;12.10;99.90
16767;DHT22;8501;49.926;8.404;2022-11-15T16:17:19;12.10;99.90
16767;DHT22;8501;49.926;8.404;2022-11-15T16:19:45;12.10;99.90
16767;DHT22;8501;49.926;8.404;2022-11-15T16:22:11;12.10;99.90
16767;DHT22;8501;49.926;8.404;2022-11-15T16:24:37;12.10;99.90
16767;DHT22;8501;49.926;8.404;2022-11-15T16:27:02;12.10;99.90
16767;DHT22;8501;49.926;8.404;2022-11-15T16:29:28;12.00;99.90
16767;DHT22;8501;49.926;8.404;2022-11-15T16:31:54;12.00;99.90
16767;DHT22;8501;49.926;8.404;2022-11-15T16:34:19;12.00;99.90
16767;DHT22;8501;49.926;8.404;2022-11-15T16:36:45;12.00;99.90
16767;DHT22;8501;49.926;8.404;2022-11-15T16:39:11;12.00;99.90
16767;DHT22;8501;49.926;8.404;2022-11-15T16:41:43;12.00;99.90
16767;DHT22;8501;49.926;8.404;2022-11-15T16:44:12;12.00;99.90
16767;DHT22;8501;49.926;8.404;2022-11-15T16:46:41;12.00;99.90
16767;DHT22;8501;49.926;8.404;2022-11-15T16:49:12;12.00;99.90
16767;DHT22;8501;49.926;8.404;2022-11-15T16:51:39;12.00;99.90
16767;DHT22;8501;49.926;8.404;2022-11-15T16:54:06;12.00;99.90
16767;DHT22;8501;49.926;8.404;2022-11-15T16:56:32;12.00;99.90
16767;DHT22;8501;49.926;8.404;2022-11-15T16:58:59;11.90;99.90
16767;DHT22;8501;49.926;8.404;2022-11-15T17:01:27;12.00;99.90
16767;DHT22;8501;49.926;8.404;2022-11-15T17:03:53;11.90;99.90
16767;DHT22;8501;49.926;8.404;2022-11-15T17:06:20;11.90;99.90
16767;DHT22;8501;49.926;8.404;2022-11-15T17:08:46;11.90;99.90
16767;DHT22;8501;49.926;8.404;2022-11-15T17:11:16;11.90;99.90
16767;DHT22;8501;49.926;8.404;2022-11-15T17:13:42;11.80;99.90
16767;DHT22;8501;49.926;8.404;2022-11-15T17:16:11;11.80;99.90
16767;DHT22;8501;49.926;8.404;2022-11-15T17:18:37;11.80;99.90
16767;DHT22;8501;49.926;8.404;2022-11-15T17:21:11;11.80;99.90
16767;DHT22;8501;49.926;8.404;2022-11-15T17:23:37;11.80;99.90
16767;DHT22;8501;49.926;8.404;2022-11-15T17:26:04;11.80;99.90
16767;DHT22;8501;49.926;8.404;2022-11-15T17:28:33;11.80;99.90
16767;DHT22;8501;49.926;8.404;2022-11-15T17:30:59;11.80;99.90
16767;DHT22;8501;49.926;8.404;2022-11-15T17:33:26;11.80;99.90
16767;DHT22;8501;49.926;8.404;2022-11-15T17:35:56;11.70;99.90
16767;DHT22;8501;49.926;8.404;2022-11-15T17:38:22;11.80;99.90
16767;DHT22;8501;49.926;8.404;2022-11-15T17:40:48;11.80;99.90
16767;DHT22;8501;49.926;8.404;2022-11-15T17:43:13;11.80;99.90
16767;DHT22;8501;49.926;8.404;2022-11-15T17:45:41;11.70;99.90
16767;DHT22;8501;49.926;8.404;2022-11-15T17:48:06;11.70;99.90
16767;DHT22;8501;49.926;8.404;2022-11-15T17:50:32;11.70;99.90
16767;DHT22;8501;49.926;8.404;2022-11-15T17:53:00;11.70;99.90
16767;DHT22;8501;49.926;8.404;2022-11-15T17:55:26;11.70;99.90
16767;DHT22;8501;49.926;8.404;2022-11-15T17:57:51;11.70;99.90
16767;DHT22;8501;49.926;8.404;2022-11-15T18:00:20;11.70;99.90
16767;DHT22;8501;49.926;8.404;2022-11-15T18:02:46;11.70;99.90